Albuquerque, NM

10:29 AM MDT on October 02, 2014 (GMT -0600)
Albuquerque International Sunport | Change Station
CLOSE
Current Station
Airport
Location: Albuquerque,
Elevation: 5312 ft
Nearby Weather Stations
Active Advisory: Special Statement Active Notice: Public Information Statement

Elev 5312 ft 35.04 °N, 106.61 °W | Updated 37 minutes ago

Clear
Clear
54 °F
Feels Like 54 °F
N
17
Wind Variable Wind from NNW
Gusts 25 mph

Today
High -- | Low -- °F
--% Chance of Precip.
Yesterday
High -- | Low -- °F
Precip. -- in
7:02 AM 6:48 PM
First Quarter, 60% visible
Pressure 30.09 in
Visibility 10.0 miles
Clouds Clear
Dew Point 27 °F
Humidity 35%
Rainfall 0.00 in
Snow Depth 2 in , 1 in , 22 in
UV 4 out of 12
Pollen 6.00 out of 12
Air Quality Not available.
Flu Activity Not available.
METAR KABQ 021552Z 34015G22KT 10SM CLR 12/M03 A3025 RMK AO2 SLP187 T01221028

More Conditions Fewer Conditions

Pressure 30.09 in
Visibility 10.0 miles
Clouds Clear
Dew Point 27 °F
Humidity 35%
Rainfall 0.00 in
Snow Depth 2 in , 1 in , 22 in
UV 4 out of 12
Pollen 6.00 out of 12
Air Quality Not available.
Flu Activity Not available.
METAR KABQ 021552Z 34015G22KT 10SM CLR 12/M03 A3025 RMK AO2 SLP187 T01221028

More Conditions Fewer Conditions

10-Day Weather Forecast

Almanac

Astronomy

Oct. 02, 2014 Rise Set
Actual Time 7:02 AM MDT 6:48 PM MDT
Civil Twilight 6:36 AM MDT 7:14 PM MDT
Nautical Twilight 6:07 AM MDT 7:43 PM MDT
Astronomical Twilight 5:37 AM MDT 8:12 PM MDT
Moon 2:45 PM MDT 12:34 AM MDT
Length of Visible Light 12h 37m
Length of Day
11h 46m
Tomorrow will be 2m 11s shorter.
First Quarter, 60% of the Moon is Illuminated
Today
First Quarter
Oct 8
Full
Oct 15
Last Quarter
Oct 23
New
Oct 30
First Quarter

Today's Extremes

State Highs State Lows

Community

WunderPhotos

Upload Photos

1,758,290 photos uploaded!

WunderBlogs® & News

Nearby

Snow Depth

Station Depth Elevation
Frisco Divide 0 in 8000 ft
Santa Fe 2 in 11445 ft
Tolby 1 in 10180 ft
Silver Creek Divide 22 in 9000 ft
Signal Peak 1 in 8360 ft

Earthquake Activity

City Distance Mag. Time & Date
No recent earthquake activity has been reported nearby.
Minimum magnitude displayed is 2.5.

Coastal Water Temperatures

Place Temperature
No Stations Reporting

Nearby Weather Stations